Time;durP1;ratioP1;P1;durP2;ratioP2;P2;SDS_P1;SDS_P2;PMS_P1;PMS_P2;Temp;Humidity;BMP_temperature;BMP_pressure;BME280_temperature;BME280_humidity;BME280_pressure;Samples;Min_cycle;Max_cycle;Signal;HPM_P1;HPM_P2
2023/06/26 00:00:26;;;;;;;11.37;10.03;;;21.70;99.90;;;;;;5115566;28;20540;-55
2023/06/26 00:02:52;;;;;;;10.23;9.23;;;21.70;99.90;;;;;;5115848;28;20453;-51
2023/06/26 00:05:17;;;;;;;9.83;8.90;;;21.70;99.90;;;;;;5115912;28;20167;-55
2023/06/26 00:07:43;;;;;;;9.73;8.80;;;21.70;99.90;;;;;;5115933;28;20180;-52
2023/06/26 00:10:09;;;;;;;10.57;9.67;;;21.60;99.90;;;;;;5115318;28;20190;-53
2023/06/26 00:12:35;;;;;;;10.80;9.80;;;21.40;99.90;;;;;;5117148;28;20218;-53
2023/06/26 00:15:00;;;;;;;11.10;10.10;;;21.30;99.90;;;;;;5116379;28;20413;-51
2023/06/26 00:17:26;;;;;;;11.13;10.13;;;21.20;99.90;;;;;;5116934;28;20168;-51
2023/06/26 00:19:52;;;;;;;10.63;9.63;;;21.10;99.90;;;;;;5116575;28;20396;-61
2023/06/26 00:22:18;;;;;;;9.90;9.00;;;21.00;99.90;;;;;;5115592;28;20563;-53
2023/06/26 00:24:44;;;;;;;12.13;10.90;;;21.00;1.00;;;;;;5116881;28;20414;-51
2023/06/26 00:27:10;;;;;;;9.50;8.60;;;21.00;1.00;;;;;;5116110;28;20413;-53
2023/06/26 00:29:36;;;;;;;11.70;10.70;;;20.90;1.00;;;;;;5117195;28;20519;-52
2023/06/26 00:32:01;;;;;;;11.00;10.00;;;20.80;1.00;;;;;;5115431;28;20270;-50
2023/06/26 00:34:27;;;;;;;11.57;10.47;;;20.80;1.00;;;;;;5115219;28;20262;-50
2023/06/26 00:36:52;;;;;;;11.33;10.30;;;20.80;1.00;;;;;;5115743;28;20418;-51
2023/06/26 00:39:18;;;;;;;11.80;9.50;;;20.70;1.00;;;;;;5116271;28;20180;-54
2023/06/26 00:41:43;;;;;;;11.00;9.97;;;20.70;1.00;;;;;;5115694;28;20205;-51
2023/06/26 00:44:09;;;;;;;10.40;9.50;;;20.70;1.00;;;;;;5115079;28;20314;-50
2023/06/26 00:46:35;;;;;;;10.60;9.60;;;20.70;1.00;;;;;;5115420;28;20210;-52
2023/06/26 00:49:03;;;;;;;11.30;10.20;;;20.70;1.00;;;;;;5115422;28;20514;-54
2023/06/26 00:51:29;;;;;;;9.07;8.23;;;20.60;1.00;;;;;;5115813;28;20340;-51
2023/06/26 00:53:56;;;;;;;10.63;9.70;;;20.60;1.00;;;;;;5114936;28;20417;-52
2023/06/26 00:56:22;;;;;;;10.63;9.63;;;20.50;1.00;;;;;;5115312;28;20457;-49
2023/06/26 00:58:48;;;;;;;10.20;9.23;;;20.50;1.00;;;;;;5097523;28;20457;-51
2023/06/26 01:01:17;;;;;;;10.70;9.70;;;20.50;1.00;;;;;;5116028;28;20414;-50
2023/06/26 01:03:51;;;;;;;12.17;10.70;;;20.50;1.00;;;;;;5115732;28;20298;-51
2023/06/26 01:06:17;;;;;;;10.40;9.40;;;20.60;1.00;;;;;;5098335;28;20723;-50
2023/06/26 01:08:44;;;;;;;10.13;9.23;;;20.60;1.00;;;;;;5097646;28;20811;-49
2023/06/26 01:11:10;;;;;;;11.63;10.50;;;20.60;1.00;;;;;;5098447;28;20485;-51
2023/06/26 01:13:36;;;;;;;10.83;9.73;;;20.50;1.00;;;;;;5115669;28;20506;-48
2023/06/26 01:16:03;;;;;;;11.10;10.00;;;20.50;1.00;;;;;;5115707;28;20429;-53
2023/06/26 01:18:29;;;;;;;11.27;10.17;;;20.50;1.00;;;;;;5097420;28;20436;-50
2023/06/26 01:21:01;;;;;;;10.90;9.80;;;20.50;1.00;;;;;;5097953;28;20470;-51
2023/06/26 01:23:58;;;;;;;11.43;9.40;;;20.50;1.00;;;;;;5116127;28;20881;-50
2023/06/26 01:26:26;;;;;;;10.03;9.13;;;20.40;1.00;;;;;;5115753;28;20996;-52
2023/06/26 01:28:53;;;;;;;11.23;10.10;;;20.40;1.00;;;;;;5116095;28;20421;-49
2023/06/26 01:31:19;;;;;;;9.80;8.83;;;20.40;1.00;;;;;;5116188;28;20582;-54
2023/06/26 01:33:46;;;;;;;10.83;9.87;;;20.30;1.00;;;;;;5115921;28;20489;-50
2023/06/26 01:36:12;;;;;;;10.70;9.70;;;20.30;1.00;;;;;;5098023;28;20440;-50
2023/06/26 01:38:38;;;;;;;10.50;9.40;;;20.30;1.00;;;;;;5117092;28;20676;-52
2023/06/26 01:41:06;;;;;;;10.63;9.63;;;20.20;1.00;;;;;;5115127;28;20796;-51
2023/06/26 01:44:00;;;;;;;10.60;9.50;;;20.30;1.00;;;;;;5114176;28;20210;-53
2023/06/26 01:46:30;;;;;;;10.33;8.90;;;20.30;1.00;;;;;;5114394;28;20861;-55
2023/06/26 01:49:10;;;;;;;9.80;8.90;;;20.30;1.00;;;;;;5095896;28;20433;-50
2023/06/26 01:51:44;;;;;;;11.10;9.60;;;20.30;1.00;;;;;;5113874;28;20440;-51
2023/06/26 01:54:15;;;;;;;10.03;9.03;;;20.30;1.00;;;;;;5096014;28;20424;-49
2023/06/26 01:56:42;;;;;;;10.93;9.83;;;20.20;1.00;;;;;;5097932;28;20409;-51
2023/06/26 01:59:08;;;;;;;9.83;8.93;;;20.30;1.00;;;;;;5098013;28;20433;-51
2023/06/26 02:01:34;;;;;;;10.33;9.43;;;20.20;1.00;;;;;;5097923;28;20425;-50
2023/06/26 02:04:00;;;;;;;10.90;9.87;;;20.20;1.00;;;;;;5114904;28;20461;-52
2023/06/26 02:06:25;;;;;;;10.50;9.50;;;20.30;1.00;;;;;;5115769;28;20417;-54
2023/06/26 02:08:51;;;;;;;11.13;10.03;;;20.20;1.00;;;;;;5115341;28;20627;-52
2023/06/26 02:11:17;;;;;;;9.97;8.97;;;20.20;1.00;;;;;;5115570;28;20164;-56
2023/06/26 02:13:42;;;;;;;10.30;9.30;;;20.20;1.00;;;;;;5115755;28;20176;-51
2023/06/26 02:16:08;;;;;;;10.60;9.60;;;20.20;1.00;;;;;;5114881;28;20187;-51
2023/06/26 02:18:33;;;;;;;9.40;8.47;;;20.20;1.00;;;;;;5119584;28;20176;-50
2023/06/26 02:20:59;;;;;;;10.80;9.53;;;20.20;1.00;;;;;;5101071;28;20180;-50
2023/06/26 02:23:26;;;;;;;11.40;9.83;;;20.20;1.00;;;;;;5118757;28;21354;-57
2023/06/26 02:25:52;;;;;;;9.50;8.60;;;20.20;1.00;;;;;;5118257;28;20443;-49
2023/06/26 02:28:17;;;;;;;10.17;9.23;;;20.20;1.00;;;;;;5119081;28;20855;-51
2023/06/26 02:30:43;;;;;;;10.93;9.63;;;20.20;1.00;;;;;;5119625;28;20190;-52
2023/06/26 02:33:09;;;;;;;10.00;9.10;;;20.20;1.00;;;;;;5118694;28;20589;-51
2023/06/26 02:35:34;;;;;;;10.20;9.30;;;20.20;1.00;;;;;;5111572;28;20471;-54
2023/06/26 02:38:00;;;;;;;10.30;9.40;;;20.10;1.00;;;;;;5099077;28;20318;-54
2023/06/26 02:40:26;;;;;;;9.73;8.93;;;20.10;1.00;;;;;;5108776;28;20221;-51
2023/06/26 02:42:51;;;;;;;9.57;8.73;;;20.10;1.00;;;;;;5119222;28;20208;-52
2023/06/26 02:45:17;;;;;;;9.90;9.00;;;20.00;1.00;;;;;;5118145;28;20484;-51
2023/06/26 02:47:42;;;;;;;9.83;8.93;;;20.00;1.00;;;;;;5118350;28;20252;-50
2023/06/26 02:50:09;;;;;;;9.93;9.07;;;20.00;1.00;;;;;;5116663;28;20175;-50
2023/06/26 02:52:34;;;;;;;10.57;9.60;;;20.00;1.00;;;;;;5117839;28;20549;-50
2023/06/26 02:55:01;;;;;;;10.40;9.50;;;20.00;1.00;;;;;;5116910;28;21673;-53
2023/06/26 02:57:27;;;;;;;10.40;9.30;;;20.00;1.00;;;;;;5092106;28;20248;-51
2023/06/26 02:59:52;;;;;;;12.00;9.70;;;20.00;1.00;;;;;;5098631;28;20705;-52
2023/06/26 03:02:18;;;;;;;9.70;8.70;;;20.00;1.00;;;;;;5093550;28;20196;-51
2023/06/26 03:04:43;;;;;;;10.20;9.30;;;20.00;1.00;;;;;;5114523;28;20176;-53
2023/06/26 03:07:09;;;;;;;9.90;8.97;;;20.00;1.00;;;;;;5106427;28;20602;-55
2023/06/26 03:09:35;;;;;;;10.13;9.17;;;20.00;1.00;;;;;;5113971;28;20229;-52
2023/06/26 03:12:01;;;;;;;9.47;8.63;;;20.00;1.00;;;;;;5098032;28;20241;-53
2023/06/26 03:14:26;;;;;;;11.00;10.00;;;20.00;1.00;;;;;;5099905;28;20165;-51
2023/06/26 03:16:52;;;;;;;11.07;10.07;;;20.00;1.00;;;;;;5077363;28;20845;-51
2023/06/26 03:19:18;;;;;;;9.80;8.90;;;20.00;1.00;;;;;;5094954;28;20203;-53
2023/06/26 03:21:44;;;;;;;10.73;9.80;;;20.00;1.00;;;;;;5095982;28;20488;-51
2023/06/26 03:24:10;;;;;;;10.70;9.70;;;20.00;1.00;;;;;;5100357;28;20467;-49
2023/06/26 03:26:35;;;;;;;10.37;9.37;;;20.10;1.00;;;;;;5099919;28;20176;-55
2023/06/26 03:29:01;;;;;;;10.20;9.30;;;20.10;1.00;;;;;;5108901;28;20184;-52
2023/06/26 03:31:27;;;;;;;10.03;9.03;;;20.10;1.00;;;;;;5117239;28;20236;-52
2023/06/26 03:33:53;;;;;;;10.27;9.27;;;20.10;1.00;;;;;;5118302;28;20190;-51
2023/06/26 03:36:18;;;;;;;10.87;9.77;;;20.10;1.00;;;;;;5099394;28;20546;-49
2023/06/26 03:38:44;;;;;;;10.13;9.13;;;20.10;1.00;;;;;;5118342;28;20417;-50
2023/06/26 03:41:10;;;;;;;9.43;8.60;;;20.10;1.00;;;;;;5097223;28;20319;-50
2023/06/26 03:43:36;;;;;;;10.53;9.53;;;20.10;1.00;;;;;;5116031;28;20214;-49
2023/06/26 03:46:02;;;;;;;10.57;9.57;;;20.10;1.00;;;;;;5097823;28;20434;-50
2023/06/26 03:48:27;;;;;;;9.63;8.83;;;20.10;1.00;;;;;;5098186;28;20176;-53
2023/06/26 03:50:53;;;;;;;10.33;9.43;;;20.10;1.00;;;;;;5116762;28;20232;-52
2023/06/26 03:53:19;;;;;;;11.27;9.80;;;20.10;1.00;;;;;;5116489;28;20175;-50
2023/06/26 03:55:45;;;;;;;10.10;9.20;;;20.20;1.00;;;;;;5117437;28;20239;-49
2023/06/26 03:58:11;;;;;;;10.17;9.13;;;20.20;1.00;;;;;;5117335;28;20200;-51
2023/06/26 04:00:38;;;;;;;9.13;8.33;;;20.20;1.00;;;;;;5103400;28;20427;-52
2023/06/26 04:03:04;;;;;;;9.83;8.93;;;20.20;1.00;;;;;;5116160;28;20221;-50
2023/06/26 04:05:30;;;;;;;10.23;9.23;;;20.20;1.00;;;;;;5117152;28;20424;-51
2023/06/26 04:07:57;;;;;;;10.50;9.60;;;20.20;1.00;;;;;;5116522;28;20241;-53
2023/06/26 04:10:23;;;;;;;9.63;8.77;;;20.20;1.00;;;;;;5116878;28;20182;-54
2023/06/26 04:12:50;;;;;;;9.97;8.97;;;20.20;1.00;;;;;;5116783;28;20528;-54
2023/06/26 04:15:17;;;;;;;11.40;10.37;;;20.20;1.00;;;;;;5116600;28;20553;-55
2023/06/26 04:17:43;;;;;;;10.70;9.60;;;20.20;1.00;;;;;;5115975;28;20436;-55
2023/06/26 04:20:09;;;;;;;10.10;9.20;;;20.20;1.00;;;;;;5116102;28;20874;-54
2023/06/26 04:22:34;;;;;;;9.90;9.00;;;20.30;1.00;;;;;;5107259;28;20207;-53
2023/06/26 04:25:03;;;;;;;9.20;8.30;;;20.30;1.00;;;;;;5113429;28;20446;-53
2023/06/26 04:27:30;;;;;;;10.73;9.73;;;20.30;1.00;;;;;;5107150;28;20229;-54
2023/06/26 04:29:55;;;;;;;10.80;9.80;;;20.30;1.00;;;;;;5114312;28;20439;-54
2023/06/26 04:32:21;;;;;;;9.57;8.73;;;20.40;1.00;;;;;;5115174;28;20402;-54
2023/06/26 04:34:47;;;;;;;9.87;8.97;;;20.40;1.00;;;;;;5096921;28;20534;-52
2023/06/26 04:37:16;;;;;;;10.97;10.07;;;20.50;1.00;;;;;;5094101;28;20658;-54
2023/06/26 04:39:41;;;;;;;9.33;8.53;;;20.50;1.00;;;;;;5092551;28;20430;-52
2023/06/26 04:42:09;;;;;;;11.10;10.20;;;20.60;1.00;;;;;;5093227;28;20426;-55
2023/06/26 04:44:35;;;;;;;11.97;9.57;;;20.60;1.00;;;;;;5093070;28;20561;-50
2023/06/26 04:47:00;;;;;;;10.47;9.47;;;20.70;1.00;;;;;;5093614;28;20450;-55
2023/06/26 04:49:27;;;;;;;9.83;8.90;;;20.80;1.00;;;;;;5109662;28;20541;-54
2023/06/26 04:51:54;;;;;;;10.60;9.50;;;20.90;1.00;;;;;;5114373;28;20168;-55
2023/06/26 04:54:20;;;;;;;10.00;9.20;;;21.00;1.00;;;;;;5103024;28;20458;-55
2023/06/26 04:56:47;;;;;;;11.43;10.33;;;21.10;1.00;;;;;;5093400;28;20693;-54
2023/06/26 04:59:12;;;;;;;10.07;9.17;;;21.20;1.00;;;;;;5092757;28;20749;-53
2023/06/26 05:01:39;;;;;;;10.70;9.70;;;21.20;1.00;;;;;;5090888;28;20434;-54
2023/06/26 05:04:05;;;;;;;10.67;9.60;;;21.30;1.00;;;;;;5090918;28;20599;-51
2023/06/26 05:06:31;;;;;;;10.33;9.43;;;21.40;1.00;;;;;;5090890;28;20692;-53
2023/06/26 05:08:56;;;;;;;9.57;8.63;;;21.50;1.00;;;;;;5091024;28;20407;-54
2023/06/26 05:11:22;;;;;;;10.50;9.50;;;21.60;1.00;;;;;;5091370;28;20164;-52
2023/06/26 05:13:51;;;;;;;10.33;9.43;;;21.70;1.00;;;;;;5091785;28;20184;-55
2023/06/26 05:16:16;;;;;;;9.97;8.97;;;21.70;1.00;;;;;;5089586;28;20430;-52
2023/06/26 05:18:42;;;;;;;10.40;9.50;;;21.80;1.00;;;;;;5088346;28;20437;-51
2023/06/26 05:21:08;;;;;;;10.13;9.07;;;21.90;1.00;;;;;;5088491;28;20180;-54
2023/06/26 05:23:34;;;;;;;9.93;9.03;;;22.00;1.00;;;;;;5095582;28;20238;-53
2023/06/26 05:26:03;;;;;;;10.50;9.50;;;22.10;1.00;;;;;;5106168;28;20320;-54
2023/06/26 05:28:33;;;;;;;10.00;9.00;;;22.20;1.00;;;;;;5088296;28;20680;-51
2023/06/26 05:30:59;;;;;;;10.43;9.40;;;22.20;1.00;;;;;;5108409;28;20490;-50
2023/06/26 05:33:27;;;;;;;9.90;8.90;;;22.30;1.00;;;;;;5107593;28;20429;-54
2023/06/26 05:35:54;;;;;;;10.10;9.20;;;22.30;1.00;;;;;;5105019;28;20835;-53
2023/06/26 05:38:20;;;;;;;9.70;8.90;;;22.40;1.00;;;;;;5108928;28;20478;-54
2023/06/26 05:40:46;;;;;;;10.90;9.90;;;22.50;1.00;;;;;;5112238;28;20433;-52
2023/06/26 05:43:12;;;;;;;10.57;9.47;;;22.70;1.00;;;;;;5113309;28;20473;-50
2023/06/26 05:45:38;;;;;;;9.90;9.00;;;22.70;1.00;;;;;;5110602;28;20524;-52
2023/06/26 05:48:04;;;;;;;10.70;9.80;;;22.80;1.00;;;;;;5109276;28;20509;-54
2023/06/26 05:50:30;;;;;;;10.20;8.77;;;22.80;1.00;;;;;;5107683;28;20160;-55
2023/06/26 05:52:56;;;;;;;9.57;8.67;;;22.90;1.00;;;;;;5093294;28;21120;-53
2023/06/26 05:55:22;;;;;;;10.17;9.17;;;23.00;1.00;;;;;;5094279;28;20576;-55
2023/06/26 05:57:48;;;;;;;8.93;8.10;;;23.10;1.00;;;;;;5107529;28;20425;-51
2023/06/26 06:00:14;;;;;;;10.13;9.20;;;23.10;1.00;;;;;;5111290;28;20438;-53
2023/06/26 06:02:41;;;;;;;9.53;8.73;;;23.20;1.00;;;;;;5109901;28;20472;-55
2023/06/26 06:05:11;;;;;;;10.17;9.17;;;23.30;1.00;;;;;;5112737;28;20425;-54
2023/06/26 06:07:40;;;;;;;8.33;7.53;;;23.30;1.00;;;;;;5112845;28;20409;-54
2023/06/26 06:10:06;;;;;;;9.20;8.40;;;23.40;1.00;;;;;;5095935;28;20469;-51
2023/06/26 06:12:31;;;;;;;10.43;9.53;;;23.50;1.00;;;;;;5093700;28;20462;-55
2023/06/26 06:14:57;;;;;;;10.30;9.30;;;23.70;1.00;;;;;;5074068;28;20172;-52
2023/06/26 06:17:24;;;;;;;9.40;8.57;;;23.90;1.00;;;;;;5093844;28;20570;-50
2023/06/26 06:19:49;;;;;;;8.90;8.03;;;24.00;1.00;;;;;;5094936;28;20684;-55
2023/06/26 06:22:17;;;;;;;9.17;8.37;;;24.10;1.00;;;;;;5094839;28;20440;-55
2023/06/26 06:24:43;;;;;;;9.23;8.43;;;24.40;1.00;;;;;;5094431;28;20535;-54
2023/06/26 06:27:09;;;;;;;8.90;7.60;;;24.50;1.00;;;;;;5092588;28;20490;-52
2023/06/26 06:29:35;;;;;;;8.40;7.63;;;24.70;1.00;;;;;;5096081;28;20421;-54
2023/06/26 06:32:00;;;;;;;9.97;8.93;;;24.80;1.00;;;;;;5101474;28;20587;-55
2023/06/26 06:34:26;;;;;;;9.70;8.80;;;24.70;1.00;;;;;;5113979;28;20202;-54
2023/06/26 06:36:51;;;;;;;9.63;8.73;;;24.80;1.00;;;;;;5111381;28;20662;-51
2023/06/26 06:39:17;;;;;;;8.47;7.77;;;25.00;1.00;;;;;;5110996;28;20245;-53
2023/06/26 06:41:42;;;;;;;9.80;8.90;;;25.10;1.00;;;;;;5113433;28;20167;-51
2023/06/26 06:44:08;;;;;;;10.20;9.00;;;25.30;1.00;;;;;;5113810;28;20624;-53
2023/06/26 06:46:34;;;;;;;9.27;8.47;;;25.40;1.00;;;;;;5113352;28;20198;-52
2023/06/26 06:49:00;;;;;;;9.00;8.20;;;25.30;1.00;;;;;;5115736;28;20176;-52
2023/06/26 06:51:26;;;;;;;8.77;7.90;;;25.40;1.00;;;;;;5114422;28;20176;-52
2023/06/26 06:53:51;;;;;;;9.50;8.70;;;25.40;1.00;;;;;;5115089;28;20784;-52
2023/06/26 06:56:17;;;;;;;9.33;8.37;;;25.50;1.00;;;;;;5112541;28;20622;-51
2023/06/26 06:58:43;;;;;;;9.23;8.33;;;25.70;1.00;;;;;;5111175;28;20248;-42
2023/06/26 07:01:09;;;;;;;7.80;7.10;;;25.80;1.00;;;;;;5109386;28;20180;-42
2023/06/26 07:03:35;;;;;;;9.40;8.60;;;25.80;1.00;;;;;;5110746;28;20492;-42
2023/06/26 07:06:03;;;;;;;9.40;8.60;;;25.80;1.00;;;;;;5110654;28;20401;-43
2023/06/26 07:08:29;;;;;;;9.17;7.80;;;26.00;1.00;;;;;;5113514;28;20393;-42
2023/06/26 07:10:56;;;;;;;9.23;8.30;;;26.30;1.00;;;;;;5113155;28;20870;-42
2023/06/26 07:13:22;;;;;;;9.23;8.30;;;26.60;1.00;;;;;;5112538;28;20724;-42
2023/06/26 07:15:48;;;;;;;9.50;8.60;;;26.80;1.00;;;;;;5114396;28;20469;-46
2023/06/26 07:18:14;;;;;;;8.90;8.10;;;27.00;1.00;;;;;;5114158;28;20546;-42
2023/06/26 07:20:40;;;;;;;11.00;8.87;;;27.20;1.00;;;;;;5114218;28;20171;-41
2023/06/26 07:23:05;;;;;;;8.97;8.17;;;27.40;1.00;;;;;;5112270;28;20486;-41
2023/06/26 07:25:31;;;;;;;9.07;8.37;;;27.50;1.00;;;;;;5111295;28;20180;-41
2023/06/26 07:27:56;;;;;;;9.30;8.50;;;27.40;1.00;;;;;;5094606;28;20216;-41
2023/06/26 07:30:23;;;;;;;9.10;8.20;;;27.40;1.00;;;;;;5115710;28;20266;-42
2023/06/26 07:32:49;;;;;;;8.40;7.73;;;27.60;1.00;;;;;;5115584;28;20167;-42
2023/06/26 07:35:15;;;;;;;8.60;7.90;;;27.60;1.00;;;;;;5114900;28;20470;-42
2023/06/26 07:37:41;;;;;;;10.33;9.43;;;27.60;1.00;;;;;;5080758;28;20198;-43
2023/06/26 07:40:07;;;;;;;8.37;7.77;;;27.80;1.00;;;;;;5114482;28;20429;-43
2023/06/26 07:42:33;;;;;;;10.20;9.40;;;27.80;1.00;;;;;;5115550;28;20208;-43
2023/06/26 07:44:59;;;;;;;8.47;7.77;;;27.80;1.00;;;;;;5116454;28;20413;-44
2023/06/26 07:47:24;;;;;;;10.70;8.87;;;27.90;1.00;;;;;;5116152;28;20176;-42
2023/06/26 07:49:50;;;;;;;8.60;7.90;;;28.00;1.00;;;;;;5115456;28;20230;-42
2023/06/26 07:52:16;;;;;;;8.97;8.17;;;28.40;1.00;;;;;;5115401;28;20466;-44
2023/06/26 07:54:41;;;;;;;9.07;8.27;;;28.60;1.00;;;;;;5115292;28;20560;-42
2023/06/26 07:57:08;;;;;;;8.73;8.00;;;28.60;1.00;;;;;;5096664;28;20457;-42
2023/06/26 07:59:34;;;;;;;9.43;8.53;;;28.80;1.00;;;;;;5115603;28;20259;-41
2023/06/26 08:02:01;;;;;;;8.60;7.90;;;29.00;1.00;;;;;;5114139;28;20464;-42
2023/06/26 08:04:33;;;;;;;9.10;7.97;;;29.30;1.00;;;;;;5113741;28;21034;-42
2023/06/26 08:07:00;;;;;;;9.57;8.73;;;29.50;1.00;;;;;;5111178;28;20418;-41
2023/06/26 08:09:28;;;;;;;7.67;7.07;;;29.70;1.00;;;;;;5111987;28;21122;-43
2023/06/26 08:11:54;;;;;;;8.33;7.73;;;29.70;1.00;;;;;;5113001;28;20509;-42
2023/06/26 08:14:21;;;;;;;8.43;7.67;;;30.00;1.00;;;;;;5113697;28;20506;-42
2023/06/26 08:16:48;;;;;;;8.10;7.43;;;30.00;1.00;;;;;;5114268;28;20437;-42
2023/06/26 08:19:15;;;;;;;9.00;8.27;;;30.30;1.00;;;;;;5112586;28;20440;-42
2023/06/26 08:21:41;;;;;;;9.40;8.60;;;30.20;1.00;;;;;;5112708;28;20700;-42
2023/06/26 08:24:07;;;;;;;7.90;7.30;;;30.50;1.00;;;;;;5111183;28;20472;-44
2023/06/26 08:26:33;;;;;;;8.30;7.60;;;30.80;1.00;;;;;;5095114;28;20410;-42
2023/06/26 08:28:59;;;;;;;7.87;7.27;;;30.70;1.00;;;;;;5112296;28;20199;-43
2023/06/26 08:31:24;;;;;;;8.53;7.90;;;30.80;1.00;;;;;;5113989;28;20731;-42
2023/06/26 08:33:53;;;;;;;9.53;8.40;;;30.90;1.00;;;;;;5113048;28;20265;-43
2023/06/26 08:36:18;;;;;;;9.30;8.40;;;31.00;1.00;;;;;;5112443;28;20176;-42
2023/06/26 08:38:44;;;;;;;8.77;8.07;;;31.10;1.00;;;;;;5113371;28;20424;-45
2023/06/26 08:41:10;;;;;;;8.73;7.93;;;31.30;1.00;;;;;;5114118;28;20533;-42
2023/06/26 08:43:36;;;;;;;8.80;8.10;;;31.50;1.00;;;;;;5114860;28;20212;-43
2023/06/26 08:46:02;;;;;;;7.80;7.20;;;31.60;1.00;;;;;;5115542;28;20176;-44
2023/06/26 08:48:30;;;;;;;8.90;8.20;;;32.00;1.00;;;;;;5112688;28;20476;-44
2023/06/26 08:50:56;;;;;;;8.17;7.47;;;32.00;1.00;;;;;;5111933;28;20562;-42
2023/06/26 08:54:00;;;;;;;8.63;7.77;;;31.90;1.00;;;;;;5112569;28;20420;-43
2023/06/26 08:56:32;;;;;;;8.30;7.70;;;32.10;1.00;;;;;;5112243;28;20451;-43
2023/06/26 08:58:58;;;;;;;8.90;8.30;;;31.90;1.00;;;;;;5110554;28;20455;-42
2023/06/26 09:01:25;;;;;;;9.10;8.40;;;31.90;1.00;;;;;;5109205;28;20839;-46
2023/06/26 09:03:51;;;;;;;8.63;7.83;;;32.30;1.00;;;;;;5109759;28;20478;-42
2023/06/26 09:06:18;;;;;;;9.43;8.53;;;32.10;1.00;;;;;;5110749;28;20512;-42
2023/06/26 09:08:44;;;;;;;7.33;6.73;;;32.00;1.00;;;;;;5111970;28;20773;-45
2023/06/26 09:11:12;;;;;;;8.93;8.30;;;32.20;1.00;;;;;;5112598;28;20424;-44
2023/06/26 09:13:38;;;;;;;8.17;7.47;;;31.90;1.00;;;;;;5091837;28;20518;-43
2023/06/26 09:16:10;;;;;;;9.30;8.60;;;32.30;1.00;;;;;;5092762;28;20436;-43
2023/06/26 09:18:36;;;;;;;8.90;8.20;;;32.70;1.00;;;;;;5112748;28;20190;-45
2023/06/26 09:21:08;;;;;;;8.50;7.80;;;32.70;1.00;;;;;;5115083;28;20388;-45
2023/06/26 09:23:36;;;;;;;8.13;7.53;;;32.70;1.00;;;;;;5095964;28;20264;-46
2023/06/26 09:26:11;;;;;;;8.70;8.00;;;32.80;1.00;;;;;;5114693;28;20428;-44
2023/06/26 09:28:37;;;;;;;8.80;8.10;;;32.70;1.00;;;;;;5117727;28;20399;-44
2023/06/26 09:31:06;;;;;;;10.87;9.27;;;33.30;1.00;;;;;;5117969;28;20501;-44
2023/06/26 09:33:36;;;;;;;9.13;8.10;;;33.60;1.00;;;;;;5116866;28;20253;-44
2023/06/26 09:36:05;;;;;;;8.57;7.93;;;33.50;1.00;;;;;;5116868;28;20837;-43
2023/06/26 09:38:31;;;;;;;8.40;7.70;;;32.80;1.00;;;;;;5116643;28;20409;-44
2023/06/26 09:40:56;;;;;;;8.77;7.97;;;32.20;1.00;;;;;;5113252;28;20408;-44
2023/06/26 09:43:23;;;;;;;8.10;7.40;;;32.40;1.00;;;;;;5115658;28;20211;-46
2023/06/26 09:45:48;;;;;;;8.37;7.67;;;32.00;1.00;;;;;;5097966;28;20445;-43
2023/06/26 09:48:14;;;;;;;9.70;8.70;;;31.60;1.00;;;;;;5114354;28;20419;-43
2023/06/26 09:50:42;;;;;;;8.83;8.23;;;31.40;1.00;;;;;;5113776;28;20164;-42
2023/06/26 09:53:13;;;;;;;9.10;8.40;;;31.40;1.00;;;;;;5114156;28;20425;-43
2023/06/26 09:55:43;;;;;;;8.23;7.53;;;31.50;1.00;;;;;;5114172;28;20497;-43
2023/06/26 09:58:15;;;;;;;8.87;8.17;;;31.80;1.00;;;;;;5114322;28;20523;-43
2023/06/26 10:00:44;;;;;;;8.60;7.80;;;32.20;1.00;;;;;;5114267;28;20616;-43
2023/06/26 10:03:11;;;;;;;9.13;8.43;;;32.20;1.00;;;;;;5115690;28;20507;-43
2023/06/26 10:05:38;;;;;;;9.53;8.63;;;32.20;1.00;;;;;;5114740;28;20713;-48
2023/06/26 10:08:05;;;;;;;9.30;8.50;;;31.80;1.00;;;;;;5115042;28;20425;-43
2023/06/26 10:10:33;;;;;;;9.20;8.40;;;31.60;1.00;;;;;;5117165;28;20467;-43
2023/06/26 10:13:17;;;;;;;8.60;7.90;;;31.40;1.00;;;;;;5098311;28;20444;-42
2023/06/26 10:15:44;;;;;;;9.00;8.20;;;31.50;1.00;;;;;;5118407;28;20396;-43
2023/06/26 10:18:11;;;;;;;9.00;8.20;;;31.80;1.00;;;;;;5099046;28;20860;-45
2023/06/26 10:20:36;;;;;;;8.73;8.03;;;32.10;1.00;;;;;;5096741;28;20815;-45
2023/06/26 10:23:03;;;;;;;8.90;8.20;;;32.00;1.00;;;;;;5091504;28;20470;-47
2023/06/26 10:25:30;;;;;;;8.70;8.00;;;32.10;1.00;;;;;;5084740;28;20180;-44
2023/06/26 10:28:00;;;;;;;9.03;8.33;;;32.30;1.00;;;;;;5075132;28;20465;-45
2023/06/26 10:30:29;;;;;;;9.60;8.80;;;33.10;1.00;;;;;;5075874;28;20422;-44
2023/06/26 10:32:56;;;;;;;11.30;8.60;;;33.00;1.00;;;;;;5098806;28;20408;-44
2023/06/26 10:35:22;;;;;;;10.17;9.37;;;32.90;1.00;;;;;;5096854;28;20411;-42
2023/06/26 10:37:49;;;;;;;10.37;9.43;;;32.70;1.00;;;;;;5113373;28;20657;-42
2023/06/26 10:40:27;;;;;;;9.20;8.50;;;32.20;1.00;;;;;;5114567;28;20392;-42
2023/06/26 10:43:06;;;;;;;11.50;10.47;;;32.30;1.00;;;;;;5115394;28;20451;-42
2023/06/26 10:45:33;;;;;;;10.13;9.30;;;32.50;1.00;;;;;;5116621;28;20753;-45
2023/06/26 10:47:59;;;;;;;11.20;10.30;;;32.20;1.00;;;;;;5098086;28;20683;-42
2023/06/26 10:50:28;;;;;;;10.50;9.60;;;32.30;1.00;;;;;;5115224;28;20406;-42
2023/06/26 10:53:20;;;;;;;10.27;9.43;;;32.70;1.00;;;;;;5117073;28;20419;-45
2023/06/26 10:55:56;;;;;;;11.43;10.53;;;33.30;1.00;;;;;;5117018;28;20471;-45
2023/06/26 10:58:41;;;;;;;10.50;9.70;;;32.90;1.00;;;;;;5115402;28;20384;-44
2023/06/26 11:01:20;;;;;;;11.13;10.27;;;33.10;1.00;;;;;;5113792;28;20443;-45
2023/06/26 11:04:02;;;;;;;10.57;9.67;;;32.90;1.00;;;;;;5113182;28;20523;-43
2023/06/26 11:06:27;;;;;;;11.07;9.97;;;33.10;1.00;;;;;;5114624;28;20424;-42
2023/06/26 11:08:59;;;;;;;10.20;9.20;;;32.50;1.00;;;;;;5103454;28;20393;-44
2023/06/26 11:11:53;;;;;;;10.30;9.50;;;32.50;1.00;;;;;;5094828;28;20180;-43
2023/06/26 11:14:23;;;;;;;9.83;9.13;;;32.40;1.00;;;;;;5094518;28;20405;-42
2023/06/26 11:16:49;;;;;;;10.00;9.10;;;32.50;1.00;;;;;;5095137;28;20483;-45
2023/06/26 11:19:17;;;;;;;10.80;9.90;;;32.80;1.00;;;;;;5094222;28;20512;-45
2023/06/26 11:21:44;;;;;;;10.00;9.30;;;32.80;1.00;;;;;;5093955;28;20410;-44
2023/06/26 11:24:12;;;;;;;11.33;10.37;;;32.40;1.00;;;;;;5092714;28;20441;-45
2023/06/26 11:26:42;;;;;;;11.10;10.20;;;32.40;1.00;;;;;;5090471;28;20381;-42
2023/06/26 11:29:08;;;;;;;10.60;9.70;;;32.50;1.00;;;;;;5089381;28;20672;-42
2023/06/26 11:31:38;;;;;;;9.70;8.90;;;32.50;1.00;;;;;;5091617;28;20702;-42
2023/06/26 11:34:09;;;;;;;10.80;10.00;;;32.30;1.00;;;;;;5087953;28;20429;-44
2023/06/26 11:36:38;;;;;;;10.63;9.80;;;32.50;1.00;;;;;;5090642;28;20499;-44
2023/06/26 11:39:08;;;;;;;10.30;9.40;;;32.20;1.00;;;;;;5092951;28;20408;-42
2023/06/26 11:41:35;;;;;;;11.23;10.07;;;32.30;1.00;;;;;;5092500;28;20411;-42
2023/06/26 11:44:05;;;;;;;10.13;9.33;;;32.70;1.00;;;;;;5093543;28;20463;-43
2023/06/26 11:46:31;;;;;;;11.00;10.10;;;33.10;1.00;;;;;;5095015;28;20422;-45
2023/06/26 11:48:57;;;;;;;11.00;10.10;;;32.90;1.00;;;;;;5093911;28;20440;-44
2023/06/26 11:51:23;;;;;;;10.00;9.20;;;33.20;1.00;;;;;;5094085;28;20422;-43
2023/06/26 11:53:49;;;;;;;10.43;9.60;;;33.80;1.00;;;;;;5093669;28;20176;-44
2023/06/26 11:56:16;;;;;;;10.67;9.87;;;34.10;1.00;;;;;;5092416;28;20261;-43
2023/06/26 11:59:05;;;;;;;11.03;10.10;;;34.70;1.00;;;;;;5093503;28;20177;-45
2023/06/26 12:01:35;;;;;;;10.83;10.03;;;33.70;1.00;;;;;;5094639;28;20521;-43
2023/06/26 12:04:03;;;;;;;10.70;9.90;;;33.30;1.00;;;;;;5093986;28;20449;-44
2023/06/26 12:06:34;;;;;;;10.50;9.60;;;33.00;1.00;;;;;;5101626;28;20863;-44
2023/06/26 12:09:06;;;;;;;11.17;10.23;;;32.70;1.00;;;;;;5114930;28;20376;-43
2023/06/26 12:11:33;;;;;;;11.20;10.37;;;32.80;1.00;;;;;;5098829;28;20393;-44
2023/06/26 12:13:59;;;;;;;10.70;9.80;;;33.30;1.00;;;;;;5105587;28;20425;-42
2023/06/26 12:16:25;;;;;;;10.17;9.33;;;33.20;1.00;;;;;;5095077;28;20429;-43
2023/06/26 12:18:51;;;;;;;9.67;8.87;;;32.80;1.00;;;;;;5095154;28;20519;-44
2023/06/26 12:21:44;;;;;;;10.23;9.43;;;33.30;1.00;;;;;;5092950;28;20527;-43
2023/06/26 12:24:13;;;;;;;10.40;9.60;;;33.80;1.00;;;;;;5104469;28;20383;-41
2023/06/26 12:26:43;;;;;;;9.80;8.80;;;33.40;1.00;;;;;;5111730;28;20381;-44
2023/06/26 12:29:13;;;;;;;9.93;9.13;;;33.40;1.00;;;;;;5112986;28;20418;-45
2023/06/26 12:31:51;;;;;;;9.57;8.60;;;33.50;1.00;;;;;;5111346;28;20395;-45
2023/06/26 12:34:19;;;;;;;10.23;9.33;;;33.80;1.00;;;;;;5111270;28;20399;-44
2023/06/26 12:36:48;;;;;;;10.37;9.37;;;33.90;1.00;;;;;;5112643;28;20785;-42
2023/06/26 12:39:18;;;;;;;10.13;9.10;;;34.40;1.00;;;;;;5113395;28;20727;-43
2023/06/26 12:41:55;;;;;;;10.23;9.30;;;34.50;1.00;;;;;;5114640;28;20388;-46
2023/06/26 12:44:28;;;;;;;10.07;9.27;;;35.00;1.00;;;;;;5079533;28;20439;-44
2023/06/26 12:46:56;;;;;;;10.53;9.73;;;34.00;1.00;;;;;;5113309;28;20399;-45
2023/06/26 12:49:35;;;;;;;9.83;9.03;;;32.90;1.00;;;;;;5112810;28;20433;-44
2023/06/26 12:52:02;;;;;;;9.00;8.20;;;32.90;1.00;;;;;;5111865;28;20430;-43